Time;durP1;ratioP1;P1;durP2;ratioP2;P2;SDS_P1;SDS_P2;PMS_P1;PMS_P2;Temp;Humidity;BMP_temperature;BMP_pressure;BME280_temperature;BME280_humidity;BME280_pressure;Samples;Min_cycle;Max_cycle;Signal;HPM_P1;HPM_P2
2022/06/27 00:01:47;;;;;;;6.00;4.33;;;20.40;99.90;;;;;;5090392;28;20471;-47
2022/06/27 00:04:15;;;;;;;5.53;3.20;;;20.50;99.90;;;;;;5090208;28;20506;-47
2022/06/27 00:06:42;;;;;;;4.37;3.43;;;20.50;99.90;;;;;;5090206;28;20487;-48
2022/06/27 00:09:09;;;;;;;6.27;3.83;;;20.60;99.90;;;;;;5089839;28;20537;-47
2022/06/27 00:11:36;;;;;;;6.67;3.50;;;20.50;99.90;;;;;;5090201;28;20474;-47
2022/06/27 00:14:03;;;;;;;4.00;3.00;;;20.50;99.90;;;;;;5090051;28;20460;-49
2022/06/27 00:16:30;;;;;;;4.90;2.97;;;20.60;99.90;;;;;;5090018;28;20509;-47
2022/06/27 00:18:57;;;;;;;5.37;3.80;;;20.60;99.90;;;;;;5090121;28;20478;-46
2022/06/27 00:21:25;;;;;;;4.90;3.17;;;20.60;99.90;;;;;;5089810;28;20439;-47
2022/06/27 00:23:52;;;;;;;7.40;3.70;;;20.40;99.90;;;;;;5089743;28;20574;-48
2022/06/27 00:26:19;;;;;;;5.43;3.77;;;20.40;99.90;;;;;;5089869;28;20522;-48
2022/06/27 00:28:46;;;;;;;5.20;3.80;;;20.00;99.90;;;;;;5089587;28;20475;-44
2022/06/27 00:31:13;;;;;;;6.57;3.20;;;19.80;99.90;;;;;;5089983;28;20804;-46
2022/06/27 00:33:40;;;;;;;5.57;3.47;;;20.00;99.90;;;;;;5089740;28;20471;-48
2022/06/27 00:36:08;;;;;;;5.17;3.67;;;20.10;99.90;;;;;;5089691;28;20511;-46
2022/06/27 00:38:36;;;;;;;4.53;3.13;;;20.20;99.90;;;;;;5089576;28;21009;-48
2022/06/27 00:41:03;;;;;;;6.30;4.60;;;20.30;99.90;;;;;;5089735;28;20497;-48
2022/06/27 00:43:30;;;;;;;6.07;4.30;;;20.30;99.90;;;;;;5089646;28;20506;-48
2022/06/27 00:45:57;;;;;;;6.20;3.43;;;20.30;99.90;;;;;;5089595;28;20883;-48
2022/06/27 00:48:24;;;;;;;8.67;3.33;;;20.30;99.90;;;;;;5089863;28;20526;-47
2022/06/27 00:50:51;;;;;;;6.43;3.17;;;20.40;99.90;;;;;;5089415;28;20471;-50
2022/06/27 00:53:18;;;;;;;7.47;3.23;;;20.40;99.90;;;;;;5089753;28;20502;-47
2022/06/27 00:55:47;;;;;;;4.47;3.50;;;20.40;99.90;;;;;;5089897;28;20564;-48
2022/06/27 00:58:14;;;;;;;9.00;3.77;;;20.50;99.90;;;;;;5092425;28;20777;-50
2022/06/27 01:00:41;;;;;;;5.50;3.67;;;20.50;99.90;;;;;;5093510;28;20492;-47
2022/06/27 01:03:08;;;;;;;5.00;3.50;;;20.50;99.90;;;;;;5093588;28;20706;-48
2022/06/27 01:05:35;;;;;;;9.93;3.93;;;20.50;99.90;;;;;;5093398;28;20872;-49
2022/06/27 01:08:02;;;;;;;6.40;3.97;;;20.30;99.90;;;;;;5093609;28;20518;-48
2022/06/27 01:10:29;;;;;;;9.50;3.80;;;19.90;99.90;;;;;;5093258;28;20482;-46
2022/06/27 01:12:57;;;;;;;6.30;3.50;;;19.90;99.90;;;;;;5093248;28;20498;-48
2022/06/27 01:15:25;;;;;;;10.33;3.70;;;19.90;99.90;;;;;;5093512;28;20463;-47
2022/06/27 01:17:52;;;;;;;3.93;3.13;;;20.00;99.90;;;;;;5093161;28;20843;-48
2022/06/27 01:20:19;;;;;;;8.00;3.50;;;20.10;99.90;;;;;;5093019;28;20545;-49
2022/06/27 01:22:48;;;;;;;5.47;4.30;;;20.20;99.90;;;;;;5093036;28;20886;-47
2022/06/27 01:25:21;;;;;;;8.40;3.90;;;20.40;99.90;;;;;;5093211;28;20544;-47
2022/06/27 01:27:48;;;;;;;5.73;3.80;;;20.40;99.90;;;;;;5093054;28;20465;-49
2022/06/27 01:30:15;;;;;;;6.27;3.80;;;20.30;99.90;;;;;;5092727;28;20496;-48
2022/06/27 01:32:42;;;;;;;5.60;3.70;;;20.30;99.90;;;;;;5093035;28;20562;-50
2022/06/27 01:35:10;;;;;;;11.03;4.23;;;20.30;99.90;;;;;;5093110;28;20439;-46
2022/06/27 01:37:37;;;;;;;5.17;3.90;;;20.30;99.90;;;;;;5092908;28;20559;-46
2022/06/27 01:40:06;;;;;;;6.13;3.50;;;20.00;99.90;;;;;;5092624;28;20500;-47
2022/06/27 01:42:33;;;;;;;6.07;3.13;;;20.20;99.90;;;;;;5092722;28;20539;-47
2022/06/27 01:45:00;;;;;;;10.33;4.13;;;20.20;99.90;;;;;;5093004;28;20431;-48
2022/06/27 01:47:29;;;;;;;9.30;3.80;;;20.20;99.90;;;;;;5092682;28;20518;-48
2022/06/27 01:49:56;;;;;;;8.40;4.20;;;20.10;99.90;;;;;;5092424;28;20444;-47
2022/06/27 01:52:24;;;;;;;5.53;3.80;;;19.90;99.90;;;;;;5092679;28;20482;-48
2022/06/27 01:54:51;;;;;;;9.70;3.57;;;19.90;99.90;;;;;;5092657;28;20799;-46
2022/06/27 01:57:20;;;;;;;5.10;3.10;;;20.10;99.90;;;;;;5092311;28;20896;-47
2022/06/27 01:59:49;;;;;;;5.37;3.27;;;20.10;99.90;;;;;;5092442;28;20501;-48
2022/06/27 02:02:16;;;;;;;5.03;3.73;;;20.20;99.90;;;;;;5092555;28;20518;-46
2022/06/27 02:04:44;;;;;;;6.30;3.87;;;20.00;99.90;;;;;;5092429;28;20774;-47
2022/06/27 02:07:13;;;;;;;4.60;3.60;;;20.10;99.90;;;;;;5092447;28;20439;-48
2022/06/27 02:09:39;;;;;;;4.10;3.70;;;19.90;99.90;;;;;;5091153;28;20440;-47
2022/06/27 02:12:19;;;;;;;5.23;3.77;;;19.90;99.90;;;;;;5091796;28;20475;-47
2022/06/27 02:14:49;;;;;;;11.73;5.33;;;19.80;99.90;;;;;;5092191;28;20446;-48
2022/06/27 02:17:17;;;;;;;6.03;3.93;;;19.90;99.90;;;;;;5092012;28;21082;-47
2022/06/27 02:19:45;;;;;;;8.40;3.83;;;20.00;99.90;;;;;;5091591;28;20439;-48
2022/06/27 02:22:13;;;;;;;5.00;3.30;;;20.00;99.90;;;;;;5092113;28;20500;-46
2022/06/27 02:24:41;;;;;;;4.60;3.77;;;19.90;99.90;;;;;;5092449;28;20582;-47
2022/06/27 02:27:09;;;;;;;11.30;4.10;;;19.90;99.90;;;;;;5092037;28;20504;-49
2022/06/27 02:29:36;;;;;;;4.07;3.67;;;19.90;99.90;;;;;;5091599;28;20979;-48
2022/06/27 02:32:06;;;;;;;5.27;3.70;;;19.90;99.90;;;;;;5091787;28;20439;-47
2022/06/27 02:34:34;;;;;;;6.47;3.90;;;19.90;99.90;;;;;;5091678;28;20455;-48
2022/06/27 02:37:03;;;;;;;6.83;4.60;;;20.00;99.90;;;;;;5091860;28;20481;-49
2022/06/27 02:39:33;;;;;;;6.17;4.10;;;20.10;99.90;;;;;;5091634;28;20483;-52
2022/06/27 02:42:02;;;;;;;8.60;3.90;;;20.10;99.90;;;;;;5091702;28;20450;-47
2022/06/27 02:44:31;;;;;;;5.37;3.37;;;20.20;99.90;;;;;;5091527;28;20535;-47
2022/06/27 02:46:58;;;;;;;6.93;3.60;;;20.20;99.90;;;;;;5091536;28;20432;-48
2022/06/27 02:49:27;;;;;;;6.17;3.97;;;20.10;99.90;;;;;;5091186;28;20988;-48
2022/06/27 02:52:01;;;;;;;6.47;3.83;;;20.20;99.90;;;;;;5091630;28;20501;-46
2022/06/27 02:54:36;;;;;;;5.47;3.13;;;20.20;99.90;;;;;;5091433;28;20474;-48
2022/06/27 02:57:05;;;;;;;5.23;4.17;;;20.30;99.90;;;;;;5091307;28;20475;-47
2022/06/27 02:59:35;;;;;;;8.13;3.70;;;20.20;99.90;;;;;;5091073;28;20439;-46
2022/06/27 03:02:03;;;;;;;7.30;4.07;;;19.60;99.90;;;;;;5091477;28;20435;-49
2022/06/27 03:04:31;;;;;;;7.57;4.10;;;19.50;99.90;;;;;;5091194;28;20501;-49
2022/06/27 03:06:58;;;;;;;9.23;4.40;;;19.60;99.90;;;;;;5091256;28;20442;-49
2022/06/27 03:09:25;;;;;;;4.23;3.60;;;19.70;99.90;;;;;;5090928;28;20431;-47
2022/06/27 03:11:52;;;;;;;7.53;4.23;;;19.70;99.90;;;;;;5090837;28;20545;-47
2022/06/27 03:14:19;;;;;;;5.20;4.17;;;19.50;99.90;;;;;;5091027;28;20521;-47
2022/06/27 03:16:46;;;;;;;7.50;4.77;;;19.10;99.90;;;;;;5090857;28;21031;-48
2022/06/27 03:19:13;;;;;;;5.20;4.03;;;19.00;99.90;;;;;;5090903;28;20493;-48
2022/06/27 03:21:42;;;;;;;6.10;4.03;;;19.00;99.90;;;;;;5089423;28;20527;-47
2022/06/27 03:24:09;;;;;;;7.30;4.17;;;18.90;99.90;;;;;;5090970;28;20491;-48
2022/06/27 03:26:36;;;;;;;5.67;3.47;;;19.10;99.90;;;;;;5090808;28;20526;-47
2022/06/27 03:29:03;;;;;;;4.97;3.70;;;19.10;99.90;;;;;;5090724;28;20505;-46
2022/06/27 03:31:30;;;;;;;4.80;4.30;;;19.10;99.90;;;;;;5090853;28;20504;-47
2022/06/27 03:33:57;;;;;;;11.93;4.27;;;18.90;99.90;;;;;;5147253;22;20518;-52
2022/06/27 03:36:24;;;;;;;5.40;3.67;;;19.00;99.90;;;;;;5090593;28;20475;-48
2022/06/27 03:38:53;;;;;;;5.33;3.80;;;19.10;99.90;;;;;;5090447;28;20967;-49
2022/06/27 03:41:20;;;;;;;5.23;4.10;;;19.10;99.90;;;;;;5090554;28;20431;-48
2022/06/27 03:43:47;;;;;;;5.80;3.47;;;19.20;99.90;;;;;;5090355;28;20491;-50
2022/06/27 03:46:14;;;;;;;4.87;3.30;;;19.30;99.90;;;;;;5090667;28;20949;-48
2022/06/27 03:51:26;;;;;;;9.30;3.53;;;19.50;99.90;;;;;;5090601;28;20419;-47
2022/06/27 03:53:54;;;;;;;8.20;3.77;;;19.50;99.90;;;;;;5090249;28;20953;-51
2022/06/27 03:56:21;;;;;;;8.20;3.87;;;19.60;99.90;;;;;;5090197;28;20500;-48
2022/06/27 03:58:48;;;;;;;8.53;4.17;;;19.70;99.90;;;;;;5090313;28;20479;-47
2022/06/27 04:01:15;;;;;;;7.50;4.53;;;19.60;99.90;;;;;;5090214;28;21028;-49
2022/06/27 04:03:42;;;;;;;4.17;3.77;;;19.60;99.90;;;;;;5090260;28;20520;-48
2022/06/27 04:06:09;;;;;;;7.20;3.83;;;19.70;99.90;;;;;;5090211;28;20883;-50
2022/06/27 04:08:36;;;;;;;9.80;4.40;;;19.80;99.90;;;;;;5090145;28;20435;-47
2022/06/27 04:11:04;;;;;;;4.83;3.60;;;19.80;99.90;;;;;;5089537;28;20482;-47
2022/06/27 04:13:31;;;;;;;5.40;3.50;;;19.80;99.90;;;;;;5090136;28;20537;-49
2022/06/27 04:15:58;;;;;;;5.50;3.83;;;19.80;99.90;;;;;;5090123;28;20551;-49
2022/06/27 04:18:25;;;;;;;7.33;4.00;;;19.70;99.90;;;;;;5089759;28;20925;-46
2022/06/27 04:20:52;;;;;;;6.43;4.17;;;19.40;99.90;;;;;;5089510;28;21014;-50
2022/06/27 04:23:19;;;;;;;5.30;4.00;;;19.50;99.90;;;;;;5089858;28;20550;-47
2022/06/27 04:25:46;;;;;;;5.83;3.93;;;19.60;99.90;;;;;;5089778;28;20482;-46
2022/06/27 04:28:14;;;;;;;9.50;4.50;;;19.60;99.90;;;;;;5089822;28;20475;-51
2022/06/27 04:30:41;;;;;;;8.23;4.20;;;19.70;99.90;;;;;;5089482;28;20477;-50
2022/06/27 04:33:08;;;;;;;5.80;3.73;;;19.70;99.90;;;;;;5089139;28;21043;-49
2022/06/27 04:35:36;;;;;;;5.57;4.23;;;19.80;99.90;;;;;;5089542;28;20447;-50
2022/06/27 04:38:04;;;;;;;7.60;4.50;;;19.80;99.90;;;;;;5089983;28;20490;-47
2022/06/27 04:40:31;;;;;;;5.80;3.60;;;19.70;99.90;;;;;;5089469;28;20866;-46
2022/06/27 04:42:58;;;;;;;6.13;3.70;;;19.80;99.90;;;;;;5089661;28;20470;-49
2022/06/27 04:45:27;;;;;;;6.70;4.50;;;19.60;99.90;;;;;;5089833;28;20473;-47
2022/06/27 04:47:54;;;;;;;6.83;4.97;;;19.70;99.90;;;;;;5089692;28;20505;-49
2022/06/27 04:50:23;;;;;;;9.10;4.43;;;19.80;99.90;;;;;;5089265;28;20475;-46
2022/06/27 04:52:50;;;;;;;5.67;4.43;;;19.80;99.90;;;;;;5089622;28;20439;-46
2022/06/27 04:55:17;;;;;;;11.03;5.07;;;19.80;99.90;;;;;;5090051;28;20496;-47
2022/06/27 04:57:46;;;;;;;5.20;3.80;;;19.80;99.90;;;;;;5089652;28;20507;-52
2022/06/27 05:00:15;;;;;;;10.30;4.23;;;19.80;99.90;;;;;;5089349;28;20475;-50
2022/06/27 05:02:45;;;;;;;8.80;4.50;;;19.80;99.90;;;;;;5089817;28;21044;-46
2022/06/27 05:05:12;;;;;;;4.80;3.10;;;19.80;99.90;;;;;;5089593;28;20862;-46
2022/06/27 05:07:39;;;;;;;6.40;4.20;;;19.90;99.90;;;;;;5089516;28;20960;-46
2022/06/27 05:10:08;;;;;;;6.90;4.30;;;19.90;99.90;;;;;;5089375;28;20447;-47
2022/06/27 05:12:35;;;;;;;7.90;4.03;;;19.90;99.90;;;;;;5089706;28;20470;-48
2022/06/27 05:15:02;;;;;;;6.50;3.53;;;19.90;99.90;;;;;;5089647;28;20534;-52
2022/06/27 05:17:29;;;;;;;8.20;4.90;;;20.00;99.90;;;;;;5089512;28;20494;-48
2022/06/27 05:19:57;;;;;;;7.30;4.00;;;19.90;99.90;;;;;;5088914;28;20463;-50
2022/06/27 05:22:24;;;;;;;5.47;4.17;;;19.80;99.90;;;;;;5089478;28;20528;-49
2022/06/27 05:24:51;;;;;;;8.77;4.77;;;19.80;99.90;;;;;;5089380;28;20469;-48
2022/06/27 05:27:18;;;;;;;7.83;4.50;;;19.80;99.90;;;;;;5089367;28;20440;-46
2022/06/27 05:29:45;;;;;;;7.20;4.17;;;19.90;99.90;;;;;;5089170;28;20923;-47
2022/06/27 05:32:13;;;;;;;9.17;3.47;;;20.00;99.90;;;;;;5089663;28;20439;-50
2022/06/27 05:34:40;;;;;;;11.60;3.73;;;20.10;99.90;;;;;;5088932;28;20467;-47
2022/06/27 05:37:09;;;;;;;5.50;3.87;;;20.00;99.90;;;;;;5089644;28;20844;-50
2022/06/27 05:39:36;;;;;;;5.53;4.37;;;20.00;99.90;;;;;;5088860;28;20447;-48
2022/06/27 05:42:05;;;;;;;5.90;4.47;;;20.10;99.90;;;;;;5089182;28;20450;-50
2022/06/27 05:44:32;;;;;;;10.57;4.77;;;20.20;99.90;;;;;;5090773;28;20559;-49
2022/06/27 05:46:59;;;;;;;7.57;4.23;;;20.20;99.90;;;;;;5092734;28;20927;-46
2022/06/27 05:49:26;;;;;;;7.83;5.33;;;20.30;99.90;;;;;;5092539;28;20450;-47
2022/06/27 05:51:55;;;;;;;9.80;4.27;;;20.40;99.90;;;;;;5092668;28;20534;-50
2022/06/27 05:54:24;;;;;;;8.77;4.77;;;20.30;99.90;;;;;;5092499;28;20463;-48
2022/06/27 05:56:51;;;;;;;6.40;3.80;;;20.40;99.90;;;;;;5092601;28;20534;-47
2022/06/27 05:59:18;;;;;;;7.03;3.73;;;20.30;99.90;;;;;;5092307;28;20529;-46
2022/06/27 06:01:46;;;;;;;10.73;3.90;;;20.20;99.90;;;;;;5092697;28;20453;-47
2022/06/27 06:04:14;;;;;;;9.80;3.20;;;20.30;99.90;;;;;;5092435;28;20499;-51
2022/06/27 06:06:43;;;;;;;9.00;4.10;;;20.40;99.90;;;;;;5092270;28;20432;-49
2022/06/27 06:09:10;;;;;;;8.93;4.73;;;20.90;99.90;;;;;;5092230;28;20925;-47
2022/06/27 06:11:39;;;;;;;7.60;3.83;;;21.40;99.90;;;;;;5092179;28;20443;-49
2022/06/27 06:14:08;;;;;;;7.53;3.63;;;22.00;99.90;;;;;;5092275;28;20470;-47
2022/06/27 06:16:36;;;;;;;7.03;4.03;;;22.60;99.90;;;;;;5092243;28;20439;-48
2022/06/27 06:19:03;;;;;;;5.73;3.17;;;23.30;99.90;;;;;;5091849;28;20521;-51
2022/06/27 06:21:31;;;;;;;8.70;3.90;;;23.70;99.90;;;;;;5091680;28;20465;-47
2022/06/27 06:23:59;;;;;;;7.87;4.90;;;23.30;99.90;;;;;;5092235;28;20467;-49
2022/06/27 06:26:26;;;;;;;9.43;4.93;;;23.10;99.90;;;;;;5091950;28;20958;-51
2022/06/27 06:28:55;;;;;;;7.70;5.23;;;23.00;99.90;;;;;;5091917;28;20435;-47
2022/06/27 06:31:22;;;;;;;9.07;4.77;;;23.00;99.90;;;;;;5092272;28;20455;-49
2022/06/27 06:33:51;;;;;;;7.87;4.80;;;22.70;99.90;;;;;;5091386;28;20479;-48
2022/06/27 06:36:19;;;;;;;8.53;5.10;;;22.50;99.90;;;;;;5091890;28;20443;-48
2022/06/27 06:38:47;;;;;;;10.20;4.80;;;22.60;99.90;;;;;;5091654;28;21011;-47
2022/06/27 06:41:15;;;;;;;6.20;4.30;;;22.60;99.90;;;;;;5091692;28;20797;-47
2022/06/27 06:43:42;;;;;;;7.93;4.60;;;22.70;99.90;;;;;;5091374;28;20472;-48
2022/06/27 06:46:10;;;;;;;6.50;3.70;;;22.80;99.90;;;;;;5091864;28;20478;-52
2022/06/27 06:48:38;;;;;;;7.50;5.30;;;22.80;99.90;;;;;;5091679;28;20444;-53
2022/06/27 06:51:05;;;;;;;10.27;5.80;;;22.80;99.90;;;;;;5091642;28;20447;-47
2022/06/27 06:53:32;;;;;;;8.40;4.30;;;22.80;99.90;;;;;;5091475;28;20491;-48
2022/06/27 06:56:00;;;;;;;12.47;4.73;;;22.60;99.90;;;;;;5091111;28;20448;-48
2022/06/27 06:58:27;;;;;;;14.33;5.40;;;22.50;99.90;;;;;;5091201;28;21025;-47
2022/06/27 07:00:57;;;;;;;6.97;4.07;;;22.60;99.90;;;;;;5091328;28;20534;-49
2022/06/27 07:03:25;;;;;;;7.20;4.80;;;22.60;99.90;;;;;;5091355;28;20503;-52
2022/06/27 07:05:54;;;;;;;7.83;5.00;;;22.50;99.90;;;;;;5091237;28;20451;-51
2022/06/27 07:08:21;;;;;;;9.43;5.17;;;22.40;99.90;;;;;;5091064;28;20436;-49
2022/06/27 07:10:49;;;;;;;8.57;4.80;;;22.40;99.90;;;;;;5090709;28;20475;-51
2022/06/27 07:13:16;;;;;;;8.10;3.87;;;22.50;99.90;;;;;;5091247;28;20472;-47
2022/06/27 07:15:45;;;;;;;6.53;4.13;;;22.70;99.90;;;;;;5091328;28;20471;-50
2022/06/27 07:18:13;;;;;;;5.93;3.70;;;22.90;99.90;;;;;;5091083;28;20479;-48
2022/06/27 07:20:41;;;;;;;7.60;3.47;;;23.30;99.90;;;;;;5090487;28;20501;-50
2022/06/27 07:23:09;;;;;;;10.13;4.10;;;23.70;99.90;;;;;;5090947;28;20467;-49
2022/06/27 07:25:36;;;;;;;5.70;4.13;;;23.90;99.90;;;;;;5090927;28;20443;-51
2022/06/27 07:28:04;;;;;;;10.67;4.60;;;24.20;99.90;;;;;;5090711;28;20446;-47
2022/06/27 07:30:31;;;;;;;8.50;4.30;;;24.40;99.90;;;;;;5090499;28;20994;-47
2022/06/27 07:32:58;;;;;;;10.07;3.93;;;24.70;99.90;;;;;;5090705;28;20460;-52
2022/06/27 07:35:26;;;;;;;12.60;4.40;;;24.90;99.90;;;;;;5090470;28;20474;-47
2022/06/27 07:37:55;;;;;;;10.93;4.50;;;25.00;99.90;;;;;;5090789;28;20449;-47
2022/06/27 07:40:24;;;;;;;5.03;3.83;;;25.10;99.90;;;;;;5090507;28;20530;-47
2022/06/27 07:42:54;;;;;;;10.03;5.10;;;25.20;99.90;;;;;;5090396;28;21023;-47
2022/06/27 07:45:23;;;;;;;8.73;4.33;;;25.40;99.90;;;;;;5090584;28;20444;-48
2022/06/27 07:47:51;;;;;;;9.20;3.80;;;25.40;99.90;;;;;;5090387;28;20443;-49
2022/06/27 07:53:14;;;;;;;5.97;4.43;;;25.20;99.90;;;;;;5090178;28;20451;-48
2022/06/27 07:55:42;;;;;;;7.33;4.10;;;25.00;99.90;;;;;;5090450;28;20530;-47
2022/06/27 07:58:09;;;;;;;5.30;4.17;;;25.30;99.90;;;;;;5090094;28;20516;-49
2022/06/27 08:00:36;;;;;;;6.13;4.10;;;25.30;99.90;;;;;;5090231;28;20497;-50
2022/06/27 08:03:36;;;;;;;6.57;4.47;;;25.40;99.90;;;;;;5090340;28;20455;-48
2022/06/27 08:05:53;;;;;;;8.07;4.50;;;25.50;99.90;;;;;;5090149;28;20436;-48
2022/06/27 08:08:22;;;;;;;9.50;5.10;;;25.60;99.90;;;;;;5089659;28;20509;-47
2022/06/27 08:10:49;;;;;;;7.37;4.00;;;25.70;99.90;;;;;;5089709;28;21086;-47
2022/06/27 08:13:17;;;;;;;8.20;4.87;;;25.70;99.90;;;;;;5090093;28;20521;-51
2022/06/27 08:15:44;;;;;;;9.53;4.20;;;25.70;99.90;;;;;;5090176;28;20443;-47
2022/06/27 08:18:11;;;;;;;7.73;4.47;;;25.80;99.90;;;;;;5089863;28;21072;-48
2022/06/27 08:20:38;;;;;;;7.93;4.10;;;25.80;99.90;;;;;;5089488;28;20443;-47
2022/06/27 08:23:05;;;;;;;6.33;4.00;;;25.80;99.90;;;;;;5090071;28;20474;-48
2022/06/27 08:25:34;;;;;;;8.60;4.40;;;25.90;99.90;;;;;;5089863;28;20932;-49
2022/06/27 08:28:01;;;;;;;7.80;4.03;;;26.00;99.90;;;;;;5089740;28;20466;-54
2022/06/27 08:30:29;;;;;;;8.50;3.73;;;26.00;99.90;;;;;;5089858;28;20844;-50
2022/06/27 08:32:56;;;;;;;7.87;4.10;;;26.10;99.90;;;;;;5089948;28;20439;-50
2022/06/27 08:35:24;;;;;;;10.63;5.50;;;26.20;99.90;;;;;;5089597;28;20447;-47
2022/06/27 08:37:51;;;;;;;6.23;3.60;;;26.20;99.90;;;;;;5089787;28;20505;-47
2022/06/27 08:40:18;;;;;;;7.97;4.20;;;26.20;99.90;;;;;;5089425;28;20477;-49
2022/06/27 08:42:47;;;;;;;7.07;4.30;;;26.20;99.90;;;;;;5089985;28;20458;-47
2022/06/27 08:45:17;;;;;;;9.33;4.70;;;26.30;98.80;;;;;;5090040;28;20446;-51
2022/06/27 08:47:46;;;;;;;7.23;4.67;;;26.40;98.90;;;;;;5089849;28;20481;-49
2022/06/27 08:50:14;;;;;;;5.67;4.40;;;26.30;99.90;;;;;;5089800;28;20954;-50
2022/06/27 08:52:45;;;;;;;8.60;5.20;;;26.30;99.90;;;;;;5089799;28;20444;-49
2022/06/27 08:55:13;;;;;;;10.40;4.30;;;26.20;99.90;;;;;;5089889;28;20516;-49
2022/06/27 08:57:42;;;;;;;5.70;3.63;;;26.20;99.40;;;;;;5089677;28;20432;-48
2022/06/27 09:00:14;;;;;;;10.17;4.23;;;26.30;99.90;;;;;;5089219;28;20475;-48
2022/06/27 09:02:43;;;;;;;8.20;4.63;;;26.50;99.20;;;;;;5089549;28;20880;-47
2022/06/27 09:05:21;;;;;;;7.83;5.20;;;26.50;98.60;;;;;;5089752;28;20441;-49
2022/06/27 09:07:50;;;;;;;6.47;4.43;;;26.40;99.90;;;;;;5089747;28;20483;-49
2022/06/27 09:10:29;;;;;;;7.93;4.57;;;26.30;99.90;;;;;;5089316;28;20431;-47
2022/06/27 09:12:59;;;;;;;10.80;4.53;;;26.30;99.90;;;;;;5089380;28;20534;-48
2022/06/27 09:15:52;;;;;;;10.83;5.30;;;26.30;99.90;;;;;;5089631;28;20592;-52
2022/06/27 09:18:21;;;;;;;5.63;4.10;;;26.50;99.90;;;;;;5090666;28;20439;-49
2022/06/27 09:20:54;;;;;;;7.87;4.63;;;26.60;99.90;;;;;;5092802;28;20435;-47
2022/06/27 09:23:40;;;;;;;11.57;4.80;;;26.90;99.90;;;;;;5093359;28;20456;-49
2022/06/27 09:26:12;;;;;;;11.57;4.83;;;27.00;99.60;;;;;;5093133;28;20530;-49
2022/06/27 09:28:41;;;;;;;7.03;4.20;;;27.10;99.90;;;;;;5093079;28;20974;-47
2022/06/27 09:31:12;;;;;;;7.77;5.20;;;26.90;99.90;;;;;;5093147;28;20443;-47
2022/06/27 09:33:41;;;;;;;7.50;4.50;;;26.90;99.90;;;;;;5149928;22;20602;-48
2022/06/27 09:36:13;;;;;;;8.63;5.20;;;26.80;99.90;;;;;;5093069;28;20443;-49
2022/06/27 09:38:51;;;;;;;7.60;5.23;;;26.90;99.90;;;;;;5092661;28;20483;-49
2022/06/27 09:41:18;;;;;;;9.07;4.40;;;26.90;99.90;;;;;;5092917;28;20446;-49
2022/06/27 09:43:46;;;;;;;7.90;4.60;;;26.90;99.90;;;;;;5092722;28;20451;-48
2022/06/27 09:46:18;;;;;;;9.40;4.60;;;26.90;99.90;;;;;;5093215;28;20479;-49
2022/06/27 09:48:47;;;;;;;7.43;5.37;;;27.00;99.90;;;;;;5092728;28;20443;-52
2022/06/27 09:51:17;;;;;;;8.60;4.93;;;26.90;99.90;;;;;;5092866;28;20538;-49
2022/06/27 09:53:48;;;;;;;8.30;4.83;;;27.00;99.90;;;;;;5092642;28;20442;-49
2022/06/27 09:56:18;;;;;;;6.70;4.60;;;27.10;99.90;;;;;;5092592;28;20450;-48
2022/06/27 09:58:45;;;;;;;10.63;4.47;;;27.20;99.60;;;;;;5092262;28;20475;-48
2022/06/27 10:01:14;;;;;;;7.07;4.90;;;27.30;99.90;;;;;;5092754;28;20471;-48
2022/06/27 10:03:41;;;;;;;5.90;4.27;;;27.40;99.90;;;;;;5092339;28;20484;-48
2022/06/27 10:06:09;;;;;;;9.53;4.77;;;27.50;99.90;;;;;;5092380;28;20473;-48
2022/06/27 10:08:36;;;;;;;10.20;5.13;;;27.60;99.90;;;;;;5092336;28;20721;-48
2022/06/27 10:11:09;;;;;;;9.70;4.30;;;27.60;99.90;;;;;;5091732;28;20487;-48
2022/06/27 10:13:38;;;;;;;9.50;5.83;;;27.70;99.90;;;;;;5092375;28;20835;-49
2022/06/27 10:16:11;;;;;;;11.20;5.27;;;27.70;99.90;;;;;;5092349;28;20463;-48
2022/06/27 10:19:03;;;;;;;9.07;4.73;;;27.90;99.90;;;;;;5092014;28;20476;-51
2022/06/27 10:21:32;;;;;;;10.90;4.70;;;27.70;99.90;;;;;;5091990;28;20471;-50
2022/06/27 10:24:35;;;;;;;7.87;4.70;;;27.70;99.50;;;;;;5091919;28;20502;-48
2022/06/27 10:27:06;;;;;;;10.63;5.10;;;27.70;99.90;;;;;;5092201;28;20439;-48
2022/06/27 10:29:44;;;;;;;13.17;5.90;;;27.80;99.90;;;;;;5091042;28;21002;-51
2022/06/27 10:32:41;;;;;;;11.47;5.60;;;27.90;99.90;;;;;;5091892;28;20435;-49
2022/06/27 10:35:14;;;;;;;10.90;5.43;;;27.80;99.90;;;;;;5092037;28;20463;-49
2022/06/27 10:37:46;;;;;;;10.67;5.20;;;27.90;99.90;;;;;;5092101;28;20424;-51
2022/06/27 10:40:43;;;;;;;12.90;6.23;;;28.00;99.90;;;;;;5091741;28;20570;-48
2022/06/27 10:43:37;;;;;;;9.73;4.50;;;28.10;99.90;;;;;;5046028;28;20450;-49
2022/06/27 10:46:42;;;;;;;8.73;4.77;;;28.10;99.90;;;;;;5091942;28;20478;-50
2022/06/27 10:49:21;;;;;;;10.23;4.97;;;28.20;99.90;;;;;;5091888;28;20439;-49
2022/06/27 10:51:51;;;;;;;10.70;4.90;;;28.40;99.90;;;;;;5091460;28;20604;-50
2022/06/27 10:54:18;;;;;;;8.50;4.70;;;28.40;99.90;;;;;;5091321;28;20877;-48
2022/06/27 10:56:47;;;;;;;13.33;5.00;;;28.30;99.40;;;;;;5091558;28;20435;-48
2022/06/27 10:59:53;;;;;;;8.10;4.90;;;28.20;98.80;;;;;;5091280;28;20852;-48
2022/06/27 11:02:21;;;;;;;6.10;4.50;;;28.30;99.90;;;;;;5084511;28;20447;-47
2022/06/27 11:04:49;;;;;;;5.73;4.13;;;28.50;99.00;;;;;;5091501;28;20514;-47
2022/06/27 11:07:17;;;;;;;12.30;4.30;;;28.70;99.40;;;;;;5091394;28;20997;-48
2022/06/27 11:09:46;;;;;;;6.63;3.80;;;28.80;98.30;;;;;;5091073;28;20439;-47
2022/06/27 11:12:14;;;;;;;8.47;3.80;;;28.90;97.10;;;;;;5091213;28;20443;-48
2022/06/27 11:14:46;;;;;;;10.77;5.07;;;29.00;97.50;;;;;;5090939;28;20555;-49
2022/06/27 11:17:30;;;;;;;10.70;5.50;;;29.10;98.00;;;;;;5091272;28;20439;-48
2022/06/27 11:20:23;;;;;;;9.33;4.60;;;29.10;99.20;;;;;;5090399;28;20987;-47
2022/06/27 11:22:55;;;;;;;13.73;4.93;;;29.30;99.40;;;;;;5087417;28;20447;-49
2022/06/27 11:25:24;;;;;;;10.17;5.90;;;29.20;98.50;;;;;;5090916;28;20547;-52
2022/06/27 11:27:54;;;;;;;8.57;4.23;;;29.30;98.80;;;;;;5090817;28;20489;-48
2022/06/27 11:33:27;;;;;;;11.27;4.90;;;29.40;98.30;;;;;;5090503;28;20966;-48
2022/06/27 11:35:55;;;;;;;8.07;5.60;;;29.30;97.00;;;;;;5090719;28;20436;-48
2022/06/27 11:38:28;;;;;;;13.10;5.37;;;29.40;98.10;;;;;;5090965;28;20471;-48
2022/06/27 11:41:07;;;;;;;8.77;4.10;;;29.40;98.70;;;;;;5089974;28;20518;-50
2022/06/27 11:43:51;;;;;;;11.23;5.50;;;29.50;97.70;;;;;;5090144;28;20486;-47
2022/06/27 11:46:26;;;;;;;9.40;5.40;;;29.50;97.60;;;;;;5090550;28;20496;-49
2022/06/27 11:48:59;;;;;;;16.53;5.90;;;29.50;98.90;;;;;;5090422;28;20435;-49
2022/06/27 11:51:29;;;;;;;7.93;4.40;;;29.50;96.10;;;;;;5090494;28;20902;-48
2022/06/27 11:54:01;;;;;;;10.30;5.07;;;29.60;97.00;;;;;;5090478;28;20494;-50
2022/06/27 11:56:30;;;;;;;17.13;5.33;;;29.60;95.30;;;;;;5090358;28;20795;-51
2022/06/27 11:58:58;;;;;;;11.30;5.07;;;29.70;97.20;;;;;;5089976;28;20975;-50
2022/06/27 12:01:26;;;;;;;13.50;5.00;;;29.80;97.00;;;;;;5090259;28;20449;-50
2022/06/27 12:04:16;;;;;;;11.00;4.57;;;29.80;96.80;;;;;;5090239;28;20455;-48
2022/06/27 12:06:48;;;;;;;10.87;5.50;;;29.80;95.10;;;;;;5090065;28;20436;-51
2022/06/27 12:09:17;;;;;;;11.23;4.30;;;29.80;96.10;;;;;;5090207;28;20871;-47
2022/06/27 12:11:53;;;;;;;10.60;6.30;;;29.80;96.40;;;;;;5089873;28;20519;-47
2022/06/27 12:14:21;;;;;;;11.70;4.57;;;29.90;96.40;;;;;;5090031;28;20455;-48
2022/06/27 12:16:50;;;;;;;8.00;4.70;;;29.90;96.10;;;;;;5090436;28;20427;-48
2022/06/27 12:19:17;;;;;;;12.67;4.80;;;30.00;95.70;;;;;;5089946;28;20534;-48
2022/06/27 12:21:46;;;;;;;9.70;5.93;;;30.00;95.90;;;;;;5089691;28;20448;-48
2022/06/27 12:24:13;;;;;;;12.53;4.00;;;30.00;97.20;;;;;;5090136;28;20559;-49
2022/06/27 12:26:42;;;;;;;15.27;5.50;;;30.00;97.80;;;;;;5090082;28;20439;-48
2022/06/27 12:29:09;;;;;;;9.60;5.00;;;30.00;95.70;;;;;;5090126;28;20444;-48
2022/06/27 12:31:37;;;;;;;8.23;4.30;;;30.10;95.90;;;;;;5090069;28;20739;-48
2022/06/27 12:34:04;;;;;;;14.77;5.10;;;30.10;97.00;;;;;;5089600;28;20891;-48
2022/06/27 12:36:32;;;;;;;9.80;4.93;;;30.30;96.70;;;;;;5089925;28;20450;-48
2022/06/27 12:39:00;;;;;;;10.73;5.50;;;30.30;95.70;;;;;;5089588;28;20518;-48
2022/06/27 12:41:27;;;;;;;10.17;5.90;;;30.30;95.30;;;;;;5090148;28;20988;-50
2022/06/27 12:43:57;;;;;;;11.10;4.90;;;30.30;94.60;;;;;;5089662;28;20493;-50
2022/06/27 12:46:24;;;;;;;10.00;4.67;;;30.40;95.40;;;;;;5089740;28;20500;-47
2022/06/27 12:48:52;;;;;;;10.80;5.30;;;30.30;92.80;;;;;;5089482;28;20940;-50
2022/06/27 12:51:20;;;;;;;8.17;4.30;;;30.40;97.00;;;;;;5089611;28;21014;-49
2022/06/27 12:53:47;;;;;;;16.57;5.47;;;30.50;95.40;;;;;;5091794;28;21028;-49
2022/06/27 12:56:15;;;;;;;14.00;5.00;;;30.50;92.60;;;;;;5093719;28;20508;-50
2022/06/27 12:58:42;;;;;;;13.73;5.43;;;30.40;92.70;;;;;;5093734;28;20466;-52
2022/06/27 13:01:10;;;;;;;11.07;6.00;;;30.60;92.00;;;;;;5093705;28;20515;-48
2022/06/27 13:03:37;;;;;;;14.93;5.00;;;30.50;92.60;;;;;;5093596;28;21011;-49
2022/06/27 13:06:05;;;;;;;12.40;5.20;;;30.50;93.20;;;;;;5093571;28;20975;-48